Time;durP1;ratioP1;P1;durP2;ratioP2;P2;SDS_P1;SDS_P2;PMS_P1;PMS_P2;Temp;Humidity;BMP_temperature;BMP_pressure;BME280_temperature;BME280_humidity;BME280_pressure;Samples;Min_cycle;Max_cycle;Signal;HPM_P1;HPM_P2
2021/07/07 00:01:00;;;;;;;2.30;1.70;;;;;;;20.16;100.00;100564.64;1706242;84;21034;-49
2021/07/07 00:03:27;;;;;;;3.35;2.10;;;;;;;20.12;100.00;100562.31;1700538;83;20943;-49
2021/07/07 00:05:53;;;;;;;4.10;2.00;;;;;;;20.11;100.00;100574.56;1757549;80;21461;-43
2021/07/07 00:08:21;;;;;;;2.75;2.33;;;;;;;20.08;100.00;100573.03;1736840;81;20968;-43
2021/07/07 00:10:47;;;;;;;2.87;2.10;;;;;;;20.01;100.00;100565.87;1727258;83;20887;-44
2021/07/07 00:13:14;;;;;;;2.75;1.95;;;;;;;19.97;100.00;100578.20;1727193;83;20987;-49
2021/07/07 00:15:42;;;;;;;1.77;1.40;;;;;;;19.91;100.00;100582.34;1727069;83;20959;-48
2021/07/07 00:18:09;;;;;;;2.40;2.00;;;;;;;19.87;100.00;100579.42;1727413;81;21042;-43
2021/07/07 00:20:40;;;;;;;2.75;2.40;;;;;;;19.85;100.00;100582.30;1727098;83;20976;-44
2021/07/07 00:23:06;;;;;;;5.72;1.80;;;;;;;19.82;100.00;100587.14;1727221;83;21066;-49
2021/07/07 00:25:32;;;;;;;2.72;1.65;;;;;;;19.80;100.00;100588.05;1734410;81;20955;-48
2021/07/07 00:27:59;;;;;;;2.70;1.47;;;;;;;19.75;100.00;100588.48;1757378;81;20987;-49
2021/07/07 00:30:27;;;;;;;2.12;1.55;;;;;;;19.72;100.00;100593.91;1757691;81;21007;-49
2021/07/07 00:32:54;;;;;;;2.12;1.45;;;;;;;19.69;100.00;100598.74;1757351;80;20987;-49
2021/07/07 00:35:21;;;;;;;2.08;1.40;;;;;;;19.66;100.00;100604.94;1757111;81;21022;-49
2021/07/07 00:37:47;;;;;;;2.12;1.25;;;;;;;19.63;100.00;100605.59;1757277;81;21031;-49
2021/07/07 00:40:14;;;;;;;2.62;1.60;;;;;;;19.58;100.00;100603.82;1757479;81;20883;-43
2021/07/07 00:42:41;;;;;;;1.85;1.37;;;;;;;19.53;100.00;100601.25;1757473;80;21523;-48
2021/07/07 00:45:09;;;;;;;2.62;2.10;;;;;;;19.51;100.00;100605.77;1757322;81;21003;-49
2021/07/07 00:47:35;;;;;;;2.05;1.30;;;;;;;19.48;100.00;100604.22;1757479;81;21007;-43
2021/07/07 00:50:03;;;;;;;1.85;1.30;;;;;;;19.46;99.84;100605.95;1757651;80;21046;-48
2021/07/07 00:52:29;;;;;;;2.37;1.32;;;;;;;19.43;99.58;100607.19;1754867;81;21569;-43
2021/07/07 00:54:55;;;;;;;2.83;1.60;;;;;;;19.39;99.28;100608.45;1727365;82;21480;-44
2021/07/07 00:57:25;;;;;;;2.25;1.25;;;;;;;19.37;99.32;100605.77;1726963;82;21022;-45
2021/07/07 00:59:50;;;;;;;5.53;1.55;;;;;;;19.34;99.43;100610.83;1727193;82;20943;-43
2021/07/07 01:02:17;;;;;;;2.98;1.62;;;;;;;19.30;99.60;100609.86;1717194;81;21492;-43
2021/07/07 01:04:44;;;;;;;3.87;1.40;;;;;;;19.27;99.85;100626.36;1757342;81;21486;-48
2021/07/07 01:07:10;;;;;;;2.33;1.50;;;;;;;19.21;99.97;100618.78;1757373;81;21067;-43
2021/07/07 01:09:37;;;;;;;2.02;1.82;;;;;;;19.19;100.00;100621.65;1757473;81;20979;-43
2021/07/07 01:12:04;;;;;;;1.90;1.30;;;;;;;19.16;100.00;100621.74;1756899;81;20980;-44
2021/07/07 01:14:30;;;;;;;1.55;1.37;;;;;;;19.15;100.00;100624.29;1735730;81;21595;-44
2021/07/07 01:16:57;;;;;;;1.27;1.10;;;;;;;19.16;100.00;100622.33;1735774;81;20983;-43
2021/07/07 01:19:23;;;;;;;1.50;1.27;;;;;;;19.16;99.94;100620.94;1761383;81;21030;-43
2021/07/07 01:21:50;;;;;;;1.80;1.25;;;;;;;19.12;99.84;100625.77;1729828;81;20991;-43
2021/07/07 01:24:19;;;;;;;1.80;1.30;;;;;;;19.09;99.73;100624.25;1727461;83;21034;-43
2021/07/07 01:26:45;;;;;;;2.02;1.20;;;;;;;19.08;99.52;100621.22;1727202;83;21026;-42
2021/07/07 01:29:13;;;;;;;3.08;1.90;;;;;;;19.07;99.07;100625.14;1672351;84;21520;-48
2021/07/07 01:31:41;;;;;;;1.90;1.40;;;;;;;19.06;98.85;100624.31;1671808;84;21378;-43
2021/07/07 01:34:07;;;;;;;1.87;1.30;;;;;;;19.07;99.04;100634.84;1672423;85;21078;-49
2021/07/07 01:36:34;;;;;;;1.22;1.05;;;;;;;19.06;99.13;100627.66;1671893;84;21707;-49
2021/07/07 01:39:03;;;;;;;2.45;1.70;;;;;;;19.07;99.19;100627.34;1672316;84;21485;-48
2021/07/07 01:41:29;;;;;;;2.35;1.65;;;;;;;19.08;99.17;100630.34;1671937;84;21019;-49
2021/07/07 01:43:56;;;;;;;2.25;1.40;;;;;;;19.08;99.17;100628.14;1672316;85;21583;-43
2021/07/07 01:46:23;;;;;;;1.87;1.47;;;;;;;19.08;99.36;100626.76;1672039;84;21496;-49
2021/07/07 01:48:50;;;;;;;2.90;1.72;;;;;;;19.10;99.16;100631.40;1673816;84;21559;-49
2021/07/07 01:51:18;;;;;;;3.10;1.80;;;;;;;19.12;99.01;100633.27;1700272;84;21090;-43
2021/07/07 01:53:45;;;;;;;1.45;1.27;;;;;;;19.13;99.02;100634.88;1700763;84;21470;-48
2021/07/07 01:56:11;;;;;;;2.08;1.37;;;;;;;19.15;99.09;100634.56;1699566;83;21043;-43
2021/07/07 01:58:38;;;;;;;2.27;1.42;;;;;;;19.14;99.18;100636.52;1679115;84;21066;-44
2021/07/07 02:01:06;;;;;;;3.15;2.00;;;;;;;19.15;99.11;100640.09;1679008;85;21042;-49
2021/07/07 02:03:34;;;;;;;1.30;1.20;;;;;;;19.15;99.25;100636.75;1726953;83;21468;-49
2021/07/07 02:06:00;;;;;;;1.35;1.00;;;;;;;19.18;99.01;100644.97;1736705;81;21516;-49
2021/07/07 02:08:27;;;;;;;2.12;1.07;;;;;;;19.19;98.98;100644.65;1757490;81;20952;-43
2021/07/07 02:10:56;;;;;;;2.12;1.55;;;;;;;19.18;98.77;100649.93;1757408;81;21046;-49
2021/07/07 02:13:22;;;;;;;1.30;1.20;;;;;;;19.18;98.61;100651.31;1757319;81;21015;-44
2021/07/07 02:15:48;;;;;;;1.10;1.00;;;;;;;19.18;98.21;100649.93;1738710;81;20995;-49
2021/07/07 02:18:16;;;;;;;1.62;0.88;;;;;;;19.19;97.61;100655.73;1676825;85;21030;-43
2021/07/07 02:20:43;;;;;;;1.52;0.80;;;;;;;19.19;97.61;100655.73;1692489;83;21046;-43
2021/07/07 02:23:10;;;;;;;3.35;1.20;;;;;;;19.20;96.93;100665.65;1727692;82;21038;-49
2021/07/07 02:25:39;;;;;;;1.87;1.30;;;;;;;19.21;96.68;100663.69;1727662;81;21012;-43
2021/07/07 02:28:05;;;;;;;2.47;1.50;;;;;;;19.20;96.63;100663.45;1727221;83;21003;-43
2021/07/07 02:30:34;;;;;;;2.20;1.40;;;;;;;19.19;96.14;100657.11;1727370;83;20984;-48
2021/07/07 02:33:02;;;;;;;1.98;1.50;;;;;;;19.17;95.74;100655.24;1727408;81;21634;-49
2021/07/07 02:35:33;;;;;;;2.05;1.45;;;;;;;19.17;95.74;100655.24;1727378;83;21138;-43
2021/07/07 02:38:01;;;;;;;2.45;1.37;;;;;;;19.19;95.84;100664.03;1727546;83;21282;-43
2021/07/07 02:40:29;;;;;;;1.60;1.20;;;;;;;19.18;95.86;100665.73;1727366;82;21133;-48
2021/07/07 02:42:55;;;;;;;1.92;1.40;;;;;;;19.17;95.30;100666.32;1742838;81;21035;-48
2021/07/07 02:45:22;;;;;;;2.17;1.00;;;;;;;19.17;95.07;100671.86;1757586;81;21006;-43
2021/07/07 02:47:48;;;;;;;1.85;1.20;;;;;;;19.16;94.15;100664.67;1757324;81;21814;-49
2021/07/07 02:50:16;;;;;;;1.45;1.35;;;;;;;19.17;94.08;100666.32;1757542;81;21042;-43
2021/07/07 02:52:44;;;;;;;1.42;1.07;;;;;;;19.19;94.30;100676.50;1732332;81;21007;-44
2021/07/07 02:55:12;;;;;;;1.10;0.98;;;;;;;19.22;93.43;100680.56;1726897;83;21496;-49
2021/07/07 03:00:32;;;;;;;3.15;1.40;;;;;;;19.26;93.06;100682.34;1727070;83;20987;-43
2021/07/07 03:03:13;;;;;;;2.17;1.10;;;;;;;19.30;92.94;100689.41;1727266;83;21010;-44
2021/07/07 03:05:47;;;;;;;1.37;1.20;;;;;;;19.34;92.79;100687.60;1727043;83;21059;-49
2021/07/07 03:08:13;;;;;;;2.35;1.20;;;;;;;19.42;92.57;100695.05;1726894;82;21026;-44
2021/07/07 03:10:40;;;;;;;2.45;1.12;;;;;;;19.57;93.05;100687.33;1726921;83;21403;-48
2021/07/07 03:13:07;;;;;;;1.42;1.32;;;;;;;19.84;92.42;100686.86;1727313;82;21015;-49
2021/07/07 03:15:36;;;;;;;2.17;1.42;;;;;;;19.84;92.42;100686.86;1727218;83;21010;-46
2021/07/07 03:18:02;;;;;;;1.25;1.00;;;;;;;19.94;92.01;100692.59;1727312;82;20927;-44
2021/07/07 03:20:29;;;;;;;1.70;1.22;;;;;;;20.00;90.33;100701.52;1727134;83;21125;-44
2021/07/07 03:22:56;;;;;;;1.32;1.02;;;;;;;20.02;90.17;100702.80;1727274;82;21023;-43
2021/07/07 03:25:23;;;;;;;1.95;0.95;;;;;;;19.96;89.13;100705.55;1727450;83;21469;-49
2021/07/07 03:27:50;;;;;;;1.98;0.82;;;;;;;19.88;88.85;100711.94;1725698;82;20975;-48
2021/07/07 03:30:17;;;;;;;2.15;1.55;;;;;;;19.80;88.96;100712.81;1737541;82;21529;-43
2021/07/07 03:32:44;;;;;;;0.88;0.85;;;;;;;19.75;89.03;100718.78;1727499;82;21074;-49
2021/07/07 03:35:11;;;;;;;1.55;0.98;;;;;;;19.72;89.28;100719.46;1727159;83;20979;-43
2021/07/07 03:37:38;;;;;;;1.75;1.32;;;;;;;19.72;89.66;100723.62;1726499;83;21026;-49
2021/07/07 03:40:07;;;;;;;1.98;1.42;;;;;;;19.75;89.83;100723.52;1727288;83;21438;-43
2021/07/07 03:42:34;;;;;;;1.30;1.05;;;;;;;19.79;90.10;100726.45;1727307;83;21354;-49
2021/07/07 03:45:00;;;;;;;1.95;1.35;;;;;;;19.84;89.06;100723.48;1727032;83;21034;-50
2021/07/07 03:47:27;;;;;;;1.62;1.37;;;;;;;19.85;88.34;100730.64;1727108;83;21457;-50
2021/07/07 03:49:53;;;;;;;1.25;1.02;;;;;;;19.87;88.78;100728.36;1727215;83;20991;-50
2021/07/07 03:52:19;;;;;;;2.02;1.05;;;;;;;19.92;89.04;100726.19;1727092;83;21003;-44
2021/07/07 03:54:45;;;;;;;2.22;1.17;;;;;;;20.00;88.83;100738.37;1726959;83;21502;-45
2021/07/07 03:57:12;;;;;;;1.87;1.40;;;;;;;20.05;89.33;100731.24;1727083;82;21035;-45
2021/07/07 03:59:38;;;;;;;1.40;0.90;;;;;;;20.12;88.91;100732.10;1727087;83;21003;-44
2021/07/07 04:02:05;;;;;;;1.45;0.80;;;;;;;20.15;88.22;100730.88;1727199;83;20995;-44
2021/07/07 04:04:31;;;;;;;2.40;1.20;;;;;;;20.19;88.29;100726.25;1727451;83;21039;-50
2021/07/07 04:06:59;;;;;;;0.78;0.72;;;;;;;20.25;87.68;100731.05;1727116;83;21505;-44
2021/07/07 04:09:28;;;;;;;1.00;0.90;;;;;;;20.28;87.40;100729.56;1727377;83;20991;-50
2021/07/07 04:11:56;;;;;;;2.55;1.50;;;;;;;20.29;86.41;100738.11;1727044;82;21428;-44
2021/07/07 04:14:24;;;;;;;1.00;0.75;;;;;;;20.28;86.11;100742.85;1726756;82;21003;-50
2021/07/07 04:16:51;;;;;;;2.25;1.45;;;;;;;20.26;85.80;100747.12;1727153;83;21051;-44
2021/07/07 04:19:19;;;;;;;2.20;1.47;;;;;;;20.22;86.21;100750.31;1706633;83;21037;-44
2021/07/07 04:21:47;;;;;;;2.17;1.60;;;;;;;20.21;86.28;100749.52;1733537;81;21043;-49
2021/07/07 04:24:15;;;;;;;2.17;1.20;;;;;;;20.22;86.40;100745.57;1714256;81;20919;-50
2021/07/07 04:26:44;;;;;;;1.62;1.30;;;;;;;20.25;87.03;100751.86;1701375;83;20990;-50
2021/07/07 04:29:14;;;;;;;1.27;1.07;;;;;;;20.31;86.89;100751.08;1727643;82;21019;-44
2021/07/07 04:31:40;;;;;;;2.08;1.22;;;;;;;20.35;86.49;100743.67;1727093;83;20887;-44
2021/07/07 04:34:07;;;;;;;2.37;1.32;;;;;;;20.43;85.50;100744.20;1727217;83;21516;-45
2021/07/07 04:36:35;;;;;;;2.33;1.20;;;;;;;20.43;85.50;100744.20;1726949;83;20995;-50
2021/07/07 04:39:04;;;;;;;2.08;1.47;;;;;;;20.51;85.99;100744.70;1738953;81;21026;-49
2021/07/07 04:41:30;;;;;;;2.17;1.50;;;;;;;20.65;85.45;100750.56;1726881;82;20999;-43
2021/07/07 04:43:57;;;;;;;1.27;1.02;;;;;;;20.71;83.70;100753.39;1726895;83;21006;-44
2021/07/07 04:46:23;;;;;;;3.27;1.75;;;;;;;20.72;84.32;100754.44;1717392;81;20902;-44
2021/07/07 04:48:51;;;;;;;2.27;1.20;;;;;;;20.75;84.38;100755.73;1700743;83;20934;-50
2021/07/07 04:51:17;;;;;;;3.95;1.35;;;;;;;20.74;84.60;100755.47;1700964;84;21073;-49
2021/07/07 04:53:43;;;;;;;1.72;0.82;;;;;;;20.76;84.96;100764.28;1701511;83;21038;-43
2021/07/07 04:56:11;;;;;;;1.42;1.02;;;;;;;20.76;83.18;100765.09;1721322;81;20984;-49
2021/07/07 04:58:39;;;;;;;1.50;1.07;;;;;;;20.77;83.77;100769.50;1726740;82;20986;-50
2021/07/07 05:01:06;;;;;;;1.37;0.90;;;;;;;20.89;84.18;100770.69;1732480;81;20987;-44
2021/07/07 05:03:33;;;;;;;1.72;1.30;;;;;;;21.07;84.07;100773.55;1726904;81;21054;-50
2021/07/07 05:05:59;;;;;;;0.93;0.93;;;;;;;21.28;83.05;100779.61;1734422;81;21020;-45
2021/07/07 05:08:27;;;;;;;1.70;1.20;;;;;;;21.46;82.03;100773.55;1752120;81;21063;-45
2021/07/07 05:10:53;;;;;;;3.35;1.25;;;;;;;21.64;81.87;100774.73;1727255;83;21051;-44
2021/07/07 05:13:20;;;;;;;2.27;0.85;;;;;;;21.86;82.25;100785.98;1741126;81;21434;-50
2021/07/07 05:15:47;;;;;;;2.65;1.32;;;;;;;22.02;79.53;100790.25;1740280;80;21016;-49
2021/07/07 05:18:19;;;;;;;1.00;0.98;;;;;;;22.10;79.36;100787.33;1746851;81;21022;-43
2021/07/07 05:20:47;;;;;;;1.37;1.27;;;;;;;22.13;76.89;100791.39;1675620;84;21424;-44
2021/07/07 05:23:15;;;;;;;1.37;1.20;;;;;;;22.13;78.04;100794.17;1749940;81;21480;-50
2021/07/07 05:25:42;;;;;;;1.65;1.15;;;;;;;22.18;78.62;100798.13;1751383;81;21053;-50
2021/07/07 05:28:09;;;;;;;1.40;1.15;;;;;;;22.26;76.94;100807.55;1756917;81;21027;-46
2021/07/07 05:30:36;;;;;;;1.10;0.90;;;;;;;22.30;78.13;100795.37;1736835;80;21420;-45
2021/07/07 05:33:02;;;;;;;1.27;1.10;;;;;;;22.39;77.05;100802.77;1725203;81;21003;-49
2021/07/07 05:35:29;;;;;;;1.52;0.98;;;;;;;22.42;77.08;100808.42;1689390;83;21133;-44
2021/07/07 05:37:55;;;;;;;1.47;1.10;;;;;;;22.47;75.65;100806.79;1687985;83;21077;-50
2021/07/07 05:40:23;;;;;;;1.40;1.17;;;;;;;22.53;76.43;100808.77;1743148;81;21050;-44
2021/07/07 05:42:52;;;;;;;2.02;1.42;;;;;;;22.61;75.81;100811.98;1753206;81;21011;-45
2021/07/07 05:45:23;;;;;;;1.32;0.90;;;;;;;22.67;75.12;100810.56;1738992;80;21004;-49
2021/07/07 05:47:49;;;;;;;1.10;0.90;;;;;;;22.73;76.02;100809.76;1748260;81;20983;-49
2021/07/07 05:50:17;;;;;;;1.55;1.20;;;;;;;22.88;76.84;100810.98;1733852;81;21066;-44
2021/07/07 05:52:43;;;;;;;1.65;0.85;;;;;;;23.03;76.39;100814.42;1752925;81;20971;-44
2021/07/07 05:55:10;;;;;;;1.15;1.10;;;;;;;23.13;73.55;100815.89;1729570;81;21061;-44
2021/07/07 05:57:37;;;;;;;2.12;1.07;;;;;;;23.16;74.03;100815.17;1749710;80;21026;-50
2021/07/07 06:00:11;;;;;;;1.98;1.02;;;;;;;23.24;73.45;100817.57;1746644;81;21066;-50
2021/07/07 06:02:39;;;;;;;1.25;0.90;;;;;;;23.37;74.32;100821.93;1757282;80;20979;-45
2021/07/07 06:05:07;;;;;;;1.65;0.95;;;;;;;23.49;72.17;100817.67;1733117;81;21632;-50
2021/07/07 06:07:34;;;;;;;1.02;0.75;;;;;;;23.53;71.55;100818.56;1738187;81;21448;-50
2021/07/07 06:10:02;;;;;;;1.15;0.90;;;;;;;23.57;73.14;100819.47;1733260;81;21595;-50
2021/07/07 06:12:28;;;;;;;1.52;1.00;;;;;;;23.73;71.92;100817.30;1751218;81;21418;-50
2021/07/07 06:14:54;;;;;;;1.47;1.02;;;;;;;23.82;72.48;100827.11;1728913;81;21006;-45
2021/07/07 06:17:21;;;;;;;4.33;1.40;;;;;;;23.93;71.22;100827.36;1727738;81;20991;-50
2021/07/07 06:19:47;;;;;;;1.40;1.10;;;;;;;24.00;71.92;100827.55;1705610;81;21538;-45
2021/07/07 06:22:14;;;;;;;1.70;1.10;;;;;;;24.14;72.21;100821.50;1728994;81;21034;-50
2021/07/07 06:24:41;;;;;;;1.90;1.25;;;;;;;24.20;70.93;100827.61;1741461;81;20972;-45
2021/07/07 06:27:07;;;;;;;2.02;1.35;;;;;;;24.06;69.02;100833.68;1724555;81;20984;-45
2021/07/07 06:29:33;;;;;;;1.65;1.37;;;;;;;23.77;69.97;100834.95;1739562;81;21010;-50
2021/07/07 06:32:00;;;;;;;1.75;1.30;;;;;;;23.55;71.18;100835.75;1736458;81;21043;-45
2021/07/07 06:34:26;;;;;;;1.75;1.40;;;;;;;23.34;70.70;100838.79;1749811;81;21361;-44
2021/07/07 06:36:52;;;;;;;1.82;1.00;;;;;;;23.14;72.85;100837.02;1756265;81;21011;-50
2021/07/07 06:39:19;;;;;;;1.72;1.30;;;;;;;23.05;73.11;100838.58;1755798;81;20995;-50
2021/07/07 06:41:45;;;;;;;1.65;1.22;;;;;;;23.12;74.49;100843.52;1739917;81;21015;-46
2021/07/07 06:44:11;;;;;;;1.30;1.20;;;;;;;23.24;74.80;100846.84;1748446;81;21031;-49
2021/07/07 06:46:38;;;;;;;2.08;1.07;;;;;;;23.37;75.08;100855.39;1778517;79;21463;-50
2021/07/07 06:49:04;;;;;;;2.25;1.57;;;;;;;23.48;74.90;100855.08;1696694;83;21052;-44
2021/07/07 06:51:31;;;;;;;1.37;1.10;;;;;;;23.59;72.81;100856.19;1692808;82;20994;-44
2021/07/07 06:53:57;;;;;;;1.00;1.00;;;;;;;23.61;70.60;100852.46;1702576;83;21045;-49
2021/07/07 06:56:24;;;;;;;1.12;0.90;;;;;;;23.67;72.24;100857.77;1689496;83;21467;-50
2021/07/07 06:58:50;;;;;;;1.12;1.00;;;;;;;23.78;71.37;100854.10;1697238;83;21000;-50
2021/07/07 07:01:18;;;;;;;1.57;1.00;;;;;;;23.92;70.68;100860.64;1704300;82;21091;-44
2021/07/07 07:03:44;;;;;;;2.45;1.00;;;;;;;24.07;70.04;100867.39;1721700;82;20990;-50
2021/07/07 07:06:12;;;;;;;0.60;0.50;;;;;;;24.23;70.91;100876.57;1705683;83;21054;-50
2021/07/07 07:08:39;;;;;;;1.07;0.95;;;;;;;24.38;68.63;100875.48;1743505;82;21002;-45
2021/07/07 07:11:05;;;;;;;1.52;1.05;;;;;;;24.45;67.28;100874.27;1701919;83;20998;-50
2021/07/07 07:13:34;;;;;;;2.25;1.17;;;;;;;24.54;68.05;100872.71;1687191;84;21025;-45
2021/07/07 07:16:00;;;;;;;1.17;0.70;;;;;;;24.72;67.21;100868.32;1694972;83;20981;-50
2021/07/07 07:18:27;;;;;;;1.10;1.00;;;;;;;24.82;65.85;100866.94;1714200;83;21072;-45
2021/07/07 07:20:53;;;;;;;1.35;0.90;;;;;;;24.72;65.76;100872.51;1714308;83;20978;-45
2021/07/07 07:23:21;;;;;;;1.10;1.00;;;;;;;24.59;67.06;100878.02;1738078;81;20991;-50
2021/07/07 07:25:47;;;;;;;1.10;0.95;;;;;;;24.54;66.21;100875.50;1742559;81;21414;-50
2021/07/07 07:28:14;;;;;;;1.40;1.12;;;;;;;24.38;66.09;100873.53;1749398;81;20979;-46
2021/07/07 07:30:40;;;;;;;1.07;0.95;;;;;;;24.25;67.24;100883.17;1725202;81;21427;-44
2021/07/07 07:33:07;;;;;;;1.30;1.10;;;;;;;24.17;66.30;100878.59;1734846;81;21034;-47
2021/07/07 07:35:34;;;;;;;1.45;1.22;;;;;;;24.16;66.67;100876.95;1752700;81;20986;-50
2021/07/07 07:40:32;;;;;;;1.70;1.35;;;;;;;24.15;66.64;100880.93;1765584;81;21157;-49
2021/07/07 07:42:54;;;;;;;2.22;1.25;;;;;;;24.15;66.45;100883.72;1742717;81;21003;-45
2021/07/07 07:45:21;;;;;;;2.00;1.30;;;;;;;24.12;66.62;100881.66;1750805;79;21413;-50
2021/07/07 07:47:49;;;;;;;1.92;1.05;;;;;;;24.14;67.58;100882.12;1754861;81;21034;-44
2021/07/07 07:50:17;;;;;;;1.55;1.05;;;;;;;24.16;67.11;100879.19;1746786;81;20991;-44
2021/07/07 07:52:44;;;;;;;4.00;1.12;;;;;;;24.23;66.96;100877.97;1772022;79;21003;-44
2021/07/07 07:55:11;;;;;;;1.50;1.40;;;;;;;24.35;67.71;100881.22;1707456;83;21006;-45
2021/07/07 07:57:38;;;;;;;1.30;1.20;;;;;;;24.49;66.57;100888.36;1755757;81;21082;-45
2021/07/07 08:00:14;;;;;;;2.02;1.20;;;;;;;24.55;66.12;100887.69;1765870;80;21512;-50
2021/07/07 08:02:42;;;;;;;1.22;1.05;;;;;;;24.63;66.93;100889.50;1738117;81;21059;-50
2021/07/07 08:05:10;;;;;;;1.60;0.98;;;;;;;24.79;65.07;100886.64;1734523;81;21470;-45
2021/07/07 08:07:38;;;;;;;1.47;1.00;;;;;;;24.89;63.49;100888.86;1744731;81;21447;-50
2021/07/07 08:10:05;;;;;;;3.72;1.00;;;;;;;24.94;62.48;100892.55;1752484;81;21019;-50
2021/07/07 08:12:32;;;;;;;1.75;1.20;;;;;;;24.95;60.74;100890.80;1737065;81;20972;-50
2021/07/07 08:14:58;;;;;;;1.12;0.88;;;;;;;24.99;61.33;100890.86;1736850;81;20983;-45
2021/07/07 08:17:25;;;;;;;1.25;0.93;;;;;;;25.07;61.15;100890.66;1754418;81;20907;-44
2021/07/07 08:19:51;;;;;;;1.42;0.95;;;;;;;25.18;60.44;100890.90;1681499;84;21642;-50
2021/07/07 08:22:18;;;;;;;1.32;1.10;;;;;;;25.28;59.20;100890.30;1747832;81;21034;-50
2021/07/07 08:24:45;;;;;;;1.15;0.68;;;;;;;25.41;59.62;100888.15;1748766;79;20986;-45
2021/07/07 08:27:11;;;;;;;1.25;0.93;;;;;;;25.64;60.38;100889.59;1657522;85;21094;-44
2021/07/07 08:29:38;;;;;;;1.20;0.80;;;;;;;25.94;58.93;100888.36;1733177;81;21106;-45
2021/07/07 08:32:05;;;;;;;1.25;0.85;;;;;;;26.28;55.49;100896.09;1745549;81;21039;-50
2021/07/07 08:34:32;;;;;;;1.02;0.90;;;;;;;26.49;56.24;100887.23;1747453;81;21464;-44
2021/07/07 08:37:01;;;;;;;2.47;1.05;;;;;;;26.69;57.71;100885.14;1688961;82;21003;-50
2021/07/07 08:39:27;;;;;;;2.08;1.10;;;;;;;26.95;57.34;100900.53;1739561;81;20968;-45
2021/07/07 08:41:54;;;;;;;1.72;1.27;;;;;;;27.21;55.39;100886.25;1725911;81;21022;-50
2021/07/07 08:44:22;;;;;;;1.47;1.37;;;;;;;27.16;52.97;100896.38;1750245;81;20992;-50
2021/07/07 08:46:49;;;;;;;1.57;1.02;;;;;;;27.12;56.22;100892.70;1721411;83;20967;-44
2021/07/07 08:49:15;;;;;;;1.42;0.80;;;;;;;27.21;54.22;100898.27;1734480;81;21001;-47
2021/07/07 08:51:42;;;;;;;1.32;1.22;;;;;;;27.24;53.89;100896.69;1734469;81;20963;-50
2021/07/07 08:54:09;;;;;;;2.98;1.27;;;;;;;27.26;53.47;100898.52;1747155;81;20982;-44
2021/07/07 08:56:42;;;;;;;1.32;1.20;;;;;;;27.33;55.37;100894.41;1726589;80;20983;-50
2021/07/07 08:59:09;;;;;;;3.55;1.27;;;;;;;27.54;53.38;100901.44;1753314;81;21605;-44
2021/07/07 09:02:06;;;;;;;1.98;1.27;;;;;;;27.53;54.44;100900.63;1727288;81;20995;-50
2021/07/07 09:04:40;;;;;;;1.72;1.00;;;;;;;27.44;52.59;100908.55;1738628;81;20999;-50
2021/07/07 09:07:16;;;;;;;2.12;1.65;;;;;;;27.18;52.84;100915.03;1748435;79;21011;-50
2021/07/07 09:09:45;;;;;;;1.30;0.93;;;;;;;27.03;53.19;100914.84;1731251;81;20978;-50
2021/07/07 09:12:24;;;;;;;1.25;1.15;;;;;;;26.85;54.02;100906.77;1753378;80;20987;-50
2021/07/07 09:15:04;;;;;;;1.32;1.12;;;;;;;26.75;54.93;100912.45;1671771;84;21496;-51
2021/07/07 09:17:43;;;;;;;1.60;1.05;;;;;;;26.67;54.31;100917.74;1675221;84;21063;-44
2021/07/07 09:20:23;;;;;;;1.17;1.02;;;;;;;26.60;53.92;100917.63;1713927;82;21441;-50
2021/07/07 09:22:51;;;;;;;1.25;1.07;;;;;;;26.55;54.73;100924.37;1685422;83;21031;-46
2021/07/07 09:25:28;;;;;;;2.00;1.30;;;;;;;26.54;54.85;100919.16;1687532;83;21067;-46
2021/07/07 09:27:54;;;;;;;1.20;1.10;;;;;;;26.56;55.39;100926.00;1736103;81;20944;-50
2021/07/07 09:30:21;;;;;;;1.00;0.90;;;;;;;26.56;53.37;100922.39;1722070;81;20991;-50
2021/07/07 09:32:49;;;;;;;1.57;1.12;;;;;;;26.54;55.02;100924.77;1736027;81;20979;-50
2021/07/07 09:35:18;;;;;;;1.20;0.95;;;;;;;26.56;56.96;100929.41;1740975;81;21429;-50
2021/07/07 09:37:54;;;;;;;1.22;0.90;;;;;;;26.65;57.37;100929.92;1721089;82;21159;-45
2021/07/07 09:40:19;;;;;;;1.72;1.00;;;;;;;26.72;55.54;100926.42;1707687;82;21481;-45
2021/07/07 09:42:46;;;;;;;1.87;1.27;;;;;;;26.72;55.28;100930.62;1672828;84;21225;-50
2021/07/07 09:45:18;;;;;;;0.90;0.85;;;;;;;26.71;54.87;100933.23;1686538;83;21112;-51
2021/07/07 09:47:47;;;;;;;1.27;1.05;;;;;;;26.68;54.90;100931.98;1708410;83;21034;-44
2021/07/07 09:50:15;;;;;;;1.52;0.95;;;;;;;26.69;56.28;100932.19;1684921;83;21010;-50
2021/07/07 09:52:42;;;;;;;1.15;1.02;;;;;;;26.76;56.21;100938.50;1693825;83;21027;-44
2021/07/07 09:55:10;;;;;;;0.72;0.70;;;;;;;26.84;55.81;100941.62;1690439;84;21587;-50
2021/07/07 09:57:45;;;;;;;2.62;1.50;;;;;;;26.84;55.86;100936.01;1677797;84;21019;-50
2021/07/07 10:00:19;;;;;;;2.52;1.42;;;;;;;26.76;54.79;100941.31;1694282;83;21429;-50
2021/07/07 10:02:50;;;;;;;0.80;0.80;;;;;;;26.66;54.73;100937.76;1691113;84;21588;-50
2021/07/07 10:05:18;;;;;;;1.35;0.80;;;;;;;26.65;54.42;100938.92;1683942;83;21485;-45
2021/07/07 10:07:45;;;;;;;1.00;0.78;;;;;;;26.70;55.11;100940.80;1675023;84;22045;-44
2021/07/07 10:10:13;;;;;;;0.90;0.72;;;;;;;26.71;53.51;100944.44;1617144;88;21505;-50
2021/07/07 10:12:44;;;;;;;0.95;0.78;;;;;;;26.71;54.45;100946.64;1621771;86;21030;-49
2021/07/07 10:15:14;;;;;;;1.02;0.75;;;;;;;26.75;54.13;100946.68;1636444;85;21457;-44
2021/07/07 10:17:42;;;;;;;3.42;0.75;;;;;;;26.74;53.91;100949.28;1697870;83;21053;-45
2021/07/07 10:20:12;;;;;;;2.67;1.02;;;;;;;26.71;54.17;100945.24;1699990;83;21561;-50
2021/07/07 10:22:39;;;;;;;1.25;0.90;;;;;;;26.67;55.11;100941.56;1681977;83;21580;-50
2021/07/07 10:25:18;;;;;;;1.52;1.02;;;;;;;26.72;56.44;100941.84;1696393;84;21035;-50
2021/07/07 10:27:45;;;;;;;1.12;0.80;;;;;;;26.84;55.00;100940.22;1673402;84;21035;-50
2021/07/07 10:30:15;;;;;;;0.93;0.80;;;;;;;26.89;55.02;100946.89;1673480;83;21015;-50
2021/07/07 10:32:43;;;;;;;1.00;0.90;;;;;;;26.90;54.76;100944.29;1684903;83;21604;-50
2021/07/07 10:35:11;;;;;;;1.00;0.88;;;;;;;26.97;53.12;100944.39;1614068;86;21542;-50
2021/07/07 10:37:38;;;;;;;1.30;1.00;;;;;;;27.10;53.65;100941.36;1708767;83;20994;-45
2021/07/07 10:40:27;;;;;;;1.27;0.88;;;;;;;27.24;52.56;100944.38;1696202;83;21054;-50
2021/07/07 10:42:53;;;;;;;1.77;1.30;;;;;;;27.32;52.20;100943.27;1700087;84;21019;-46
2021/07/07 10:45:42;;;;;;;0.80;0.80;;;;;;;27.47;53.37;100936.44;1681084;84;21056;-45
2021/07/07 10:48:31;;;;;;;1.80;0.90;;;;;;;27.73;54.72;100938.34;1683815;83;21098;-51
2021/07/07 10:51:00;;;;;;;0.93;0.80;;;;;;;28.00;51.04;100941.84;1618426;87;21513;-45
2021/07/07 10:53:30;;;;;;;1.72;0.78;;;;;;;28.01;50.28;100936.43;1633367;86;21141;-45
2021/07/07 10:55:58;;;;;;;1.37;0.90;;;;;;;28.06;51.61;100941.69;1672658;84;21086;-45
2021/07/07 10:58:35;;;;;;;0.90;0.78;;;;;;;28.20;49.90;100941.83;1672508;84;21502;-50
2021/07/07 11:01:01;;;;;;;1.42;0.90;;;;;;;28.27;49.40;100936.27;1746451;81;21002;-50
2021/07/07 11:03:42;;;;;;;0.82;0.82;;;;;;;28.27;48.13;100935.47;1761931;81;21484;-51
2021/07/07 11:06:22;;;;;;;0.60;0.60;;;;;;;28.26;48.27;100936.07;1755571;81;20982;-45
2021/07/07 11:08:51;;;;;;;1.52;0.80;;;;;;;28.32;48.97;100927.28;1753619;81;20915;-50
2021/07/07 11:11:25;;;;;;;0.82;0.62;;;;;;;28.31;48.68;100927.84;1756175;81;20974;-49
2021/07/07 11:13:52;;;;;;;4.25;0.95;;;;;;;28.33;50.70;100927.47;1684581;84;21022;-51
2021/07/07 11:16:23;;;;;;;2.60;1.30;;;;;;;28.46;49.32;100933.02;1687906;84;20926;-50
2021/07/07 11:18:50;;;;;;;0.78;0.70;;;;;;;28.49;49.85;100930.84;1677438;84;21630;-45
2021/07/07 11:21:17;;;;;;;1.05;0.90;;;;;;;28.49;48.41;100938.67;1697582;84;21477;-45
2021/07/07 11:23:44;;;;;;;1.75;1.00;;;;;;;28.45;46.37;100937.83;1699171;84;21088;-45
2021/07/07 11:26:11;;;;;;;2.55;0.93;;;;;;;28.47;48.35;100929.02;1697488;84;21022;-50
2021/07/07 11:28:37;;;;;;;1.10;0.78;;;;;;;28.56;47.77;100930.91;1686276;83;21018;-45
2021/07/07 11:31:04;;;;;;;2.12;0.93;;;;;;;28.69;48.88;100925.16;1713267;83;21029;-50
2021/07/07 11:33:30;;;;;;;1.07;0.80;;;;;;;28.95;47.75;100924.08;1739915;81;21381;-45